Time;durP1;ratioP1;P1;durP2;ratioP2;P2;SDS_P1;SDS_P2;PMS_P1;PMS_P2;Temp;Humidity;BMP_temperature;BMP_pressure;BME280_temperature;BME280_humidity;BME280_pressure;Samples;Min_cycle;Max_cycle;Signal;HPM_P1;HPM_P2
2023/04/30 00:01:14;;;;;;;9.00;7.73;;;;;;;;;;5051603;28;20360;-75
2023/04/30 00:03:41;;;;;;;9.40;7.87;;;;;;;;;;5042544;28;20217;-76
2023/04/30 00:06:09;;;;;;;9.03;7.67;;;;;;;;;;5049229;28;20230;-76
2023/04/30 00:08:36;;;;;;;12.00;8.27;;;;;;;;;;5040239;28;20206;-76
2023/04/30 00:11:03;;;;;;;8.33;7.10;;;;;;;;;;5051869;28;20714;-75
2023/04/30 00:13:31;;;;;;;8.53;7.40;;;;;;;;;;5052075;28;20224;-75
2023/04/30 00:15:58;;;;;;;9.50;7.33;;;;;;;;;;5043788;28;20208;-74
2023/04/30 00:18:26;;;;;;;8.57;7.13;;;;;;;;;;5046898;28;20214;-77
2023/04/30 00:20:53;;;;;;;8.33;6.57;;;;;;;;;;5052982;28;20287;-76
2023/04/30 00:23:20;;;;;;;9.00;7.30;;;;;;;;;;5039913;28;23845;-75
2023/04/30 00:25:48;;;;;;;12.97;9.17;;;;;;;;;;5039711;28;20232;-76
2023/04/30 00:28:15;;;;;;;44.47;25.03;;;;;;;;;;5055947;28;20251;-75
2023/04/30 00:30:42;;;;;;;36.97;20.93;;;;;;;;;;5046760;28;20241;-76
2023/04/30 00:33:10;;;;;;;10.13;8.40;;;;;;;;;;5047453;28;20209;-76
2023/04/30 00:35:37;;;;;;;8.40;7.07;;;;;;;;;;5045636;28;20229;-76
2023/04/30 00:38:04;;;;;;;7.90;7.10;;;;;;;;;;5034518;28;20214;-77
2023/04/30 00:40:33;;;;;;;9.50;7.63;;;;;;;;;;5039076;28;20226;-74
2023/04/30 00:43:01;;;;;;;9.87;7.83;;;;;;;;;;5053127;28;20208;-75
2023/04/30 00:45:28;;;;;;;9.50;7.83;;;;;;;;;;5042112;28;20225;-75
2023/04/30 00:47:56;;;;;;;9.87;8.20;;;;;;;;;;5047940;28;20201;-75
2023/04/30 00:50:23;;;;;;;12.57;8.13;;;;;;;;;;5048054;28;20214;-74
2023/04/30 00:52:51;;;;;;;10.07;8.23;;;;;;;;;;5036445;28;20205;-75
2023/04/30 00:55:18;;;;;;;10.37;8.50;;;;;;;;;;5024734;28;20226;-75
2023/04/30 00:57:46;;;;;;;9.80;8.43;;;;;;;;;;5048680;28;20214;-75
2023/04/30 01:00:14;;;;;;;10.20;8.20;;;;;;;;;;5029086;28;20252;-76
2023/04/30 01:02:41;;;;;;;10.20;8.23;;;;;;;;;;5036329;28;21433;-75
2023/04/30 01:05:08;;;;;;;9.33;7.93;;;;;;;;;;5043354;28;20206;-75
2023/04/30 01:07:37;;;;;;;9.60;7.70;;;;;;;;;;5039125;28;20201;-75
2023/04/30 01:10:05;;;;;;;10.13;8.07;;;;;;;;;;5051944;28;20221;-75
2023/04/30 01:12:33;;;;;;;9.23;8.20;;;;;;;;;;5047732;28;20252;-76
2023/04/30 01:15:23;;;;;;;10.17;8.17;;;;;;;;;;5048775;28;20229;-74
2023/04/30 01:18:01;;;;;;;9.50;8.10;;;;;;;;;;5047233;28;20225;-75
2023/04/30 01:20:30;;;;;;;9.70;7.93;;;;;;;;;;5042786;28;21169;-75
2023/04/30 01:23:03;;;;;;;9.30;7.97;;;;;;;;;;5027061;28;21343;-75
2023/04/30 01:25:36;;;;;;;8.90;7.73;;;;;;;;;;5041035;28;20716;-75
2023/04/30 01:28:04;;;;;;;9.63;8.63;;;;;;;;;;5051703;28;20292;-75
2023/04/30 01:30:32;;;;;;;9.90;7.80;;;;;;;;;;5045976;28;20222;-75
2023/04/30 01:32:59;;;;;;;8.77;7.83;;;;;;;;;;5043472;28;20683;-75
2023/04/30 01:35:53;;;;;;;9.13;7.77;;;;;;;;;;5023008;28;20297;-74
2023/04/30 01:38:27;;;;;;;8.80;7.77;;;;;;;;;;5044621;28;20264;-75
2023/04/30 01:40:54;;;;;;;9.23;8.00;;;;;;;;;;5050021;28;20263;-77
2023/04/30 01:43:27;;;;;;;9.50;7.73;;;;;;;;;;5046875;28;20684;-76
2023/04/30 01:46:07;;;;;;;9.77;7.43;;;;;;;;;;5039636;28;20217;-76
2023/04/30 01:48:43;;;;;;;11.23;7.80;;;;;;;;;;5046243;28;20205;-75
2023/04/30 01:51:19;;;;;;;8.63;7.70;;;;;;;;;;5042396;28;20351;-76
2023/04/30 01:53:47;;;;;;;8.60;7.47;;;;;;;;;;5041121;28;20202;-76
2023/04/30 01:56:40;;;;;;;9.77;7.80;;;;;;;;;;5041809;28;20311;-76
2023/04/30 01:59:08;;;;;;;9.90;8.43;;;;;;;;;;5037803;28;20690;-74
2023/04/30 02:01:35;;;;;;;9.00;7.97;;;;;;;;;;5037140;28;20579;-76
2023/04/30 02:04:03;;;;;;;10.93;8.10;;;;;;;;;;5039158;28;20210;-76
2023/04/30 02:06:31;;;;;;;10.40;8.33;;;;;;;;;;5044112;28;20284;-75
2023/04/30 02:09:04;;;;;;;9.30;7.70;;;;;;;;;;5020933;28;20207;-76
2023/04/30 02:11:31;;;;;;;9.13;7.70;;;;;;;;;;5047032;28;20229;-76
2023/04/30 02:13:59;;;;;;;8.60;7.50;;;;;;;;;;5043870;28;20299;-76
2023/04/30 02:16:26;;;;;;;9.57;7.87;;;;;;;;;;5029792;28;20209;-76
2023/04/30 02:18:54;;;;;;;9.93;7.80;;;;;;;;;;5042224;28;20255;-76
2023/04/30 02:21:22;;;;;;;10.30;7.87;;;;;;;;;;5020736;28;20332;-77
2023/04/30 02:23:49;;;;;;;10.43;8.40;;;;;;;;;;5049251;28;20544;-75
2023/04/30 02:26:17;;;;;;;10.40;8.27;;;;;;;;;;5040158;28;20719;-75
2023/04/30 02:28:45;;;;;;;9.67;8.27;;;;;;;;;;5040904;28;20204;-74
2023/04/30 02:31:12;;;;;;;10.33;7.90;;;;;;;;;;5037829;28;20226;-76
2023/04/30 02:33:39;;;;;;;10.27;8.27;;;;;;;;;;5031810;28;20300;-75
2023/04/30 02:36:06;;;;;;;10.87;7.87;;;;;;;;;;5032589;28;20220;-76
2023/04/30 02:38:34;;;;;;;9.47;7.63;;;;;;;;;;5034935;28;20202;-73
2023/04/30 02:41:02;;;;;;;9.97;7.83;;;;;;;;;;5039655;28;20272;-77
2023/04/30 02:43:29;;;;;;;8.90;7.77;;;;;;;;;;5031957;28;20224;-76
2023/04/30 02:45:56;;;;;;;11.00;8.73;;;;;;;;;;5043040;28;20305;-76
2023/04/30 02:48:24;;;;;;;10.47;8.07;;;;;;;;;;5030914;28;20228;-75
2023/04/30 02:50:51;;;;;;;10.50;8.47;;;;;;;;;;5040374;28;20217;-77
2023/04/30 02:53:18;;;;;;;11.60;8.67;;;;;;;;;;5040598;28;20278;-77
2023/04/30 02:55:46;;;;;;;9.73;8.53;;;;;;;;;;5037692;28;20206;-75
2023/04/30 02:58:13;;;;;;;11.93;8.53;;;;;;;;;;5039959;28;20220;-75
2023/04/30 03:00:41;;;;;;;12.30;8.90;;;;;;;;;;5052326;28;20225;-75
2023/04/30 03:03:08;;;;;;;9.70;8.67;;;;;;;;;;5053031;28;20205;-76
2023/04/30 03:05:37;;;;;;;12.30;9.00;;;;;;;;;;5048350;28;20786;-76
2023/04/30 03:08:05;;;;;;;11.43;9.50;;;;;;;;;;5027334;28;20209;-74
2023/04/30 03:10:32;;;;;;;11.03;9.40;;;;;;;;;;5045144;28;20225;-76
2023/04/30 03:13:00;;;;;;;11.43;9.50;;;;;;;;;;5041333;28;21530;-77
2023/04/30 03:15:30;;;;;;;12.43;9.77;;;;;;;;;;5019542;28;20202;-74
2023/04/30 03:18:10;;;;;;;12.13;9.67;;;;;;;;;;5051331;28;20205;-76
2023/04/30 03:20:38;;;;;;;11.67;10.10;;;;;;;;;;5061994;28;20336;-75
2023/04/30 03:23:05;;;;;;;13.10;10.00;;;;;;;;;;5064677;28;20201;-76
2023/04/30 03:25:33;;;;;;;12.27;9.97;;;;;;;;;;5043118;28;20198;-74
2023/04/30 03:28:00;;;;;;;13.97;10.50;;;;;;;;;;5029738;28;20280;-74
2023/04/30 03:30:27;;;;;;;13.07;10.37;;;;;;;;;;5047425;28;20218;-74
2023/04/30 03:32:55;;;;;;;12.67;10.23;;;;;;;;;;5041798;28;20202;-73
2023/04/30 03:35:22;;;;;;;14.20;10.80;;;;;;;;;;5045046;28;20205;-76
2023/04/30 03:37:50;;;;;;;14.07;10.50;;;;;;;;;;5042154;28;20327;-75
2023/04/30 03:40:18;;;;;;;12.37;10.30;;;;;;;;;;5035535;28;20225;-75
2023/04/30 03:42:45;;;;;;;14.97;11.47;;;;;;;;;;5047885;28;20210;-74
2023/04/30 03:45:15;;;;;;;14.40;11.00;;;;;;;;;;5050873;28;20233;-76
2023/04/30 03:47:43;;;;;;;13.60;10.27;;;;;;;;;;5047396;28;20225;-74
2023/04/30 03:50:11;;;;;;;12.97;10.00;;;;;;;;;;5047621;28;20338;-74
2023/04/30 03:52:38;;;;;;;11.37;9.27;;;;;;;;;;5048418;28;20676;-76
2023/04/30 03:55:06;;;;;;;14.10;10.37;;;;;;;;;;5057652;28;20347;-73
2023/04/30 03:57:33;;;;;;;14.03;10.60;;;;;;;;;;5047295;28;20293;-75
2023/04/30 04:00:06;;;;;;;15.47;11.57;;;;;;;;;;5044007;28;20228;-76
2023/04/30 04:02:33;;;;;;;13.47;10.50;;;;;;;;;;5056130;28;20255;-75
2023/04/30 04:05:01;;;;;;;14.73;11.17;;;;;;;;;;5047842;28;20760;-76
2023/04/30 04:07:29;;;;;;;12.73;10.70;;;;;;;;;;5048744;28;20225;-75
2023/04/30 04:09:56;;;;;;;14.40;10.83;;;;;;;;;;5054352;28;20901;-75
2023/04/30 04:12:24;;;;;;;13.40;11.13;;;;;;;;;;5059146;28;20249;-75
2023/04/30 04:14:52;;;;;;;15.57;11.50;;;;;;;;;;5048592;28;20207;-75
2023/04/30 04:17:20;;;;;;;16.17;11.33;;;;;;;;;;5053783;28;21220;-74
2023/04/30 04:19:47;;;;;;;16.87;11.97;;;;;;;;;;5052697;28;20227;-75
2023/04/30 04:22:14;;;;;;;15.57;11.30;;;;;;;;;;5047476;28;20287;-77
2023/04/30 04:24:42;;;;;;;14.70;11.80;;;;;;;;;;5048278;28;21399;-76
2023/04/30 04:27:09;;;;;;;13.97;10.97;;;;;;;;;;5050798;28;20284;-72
2023/04/30 04:29:37;;;;;;;15.03;11.07;;;;;;;;;;5052042;28;20291;-77
2023/04/30 04:32:04;;;;;;;15.97;11.60;;;;;;;;;;5059671;28;20664;-75
2023/04/30 04:34:33;;;;;;;14.93;11.53;;;;;;;;;;5049673;28;20341;-75
2023/04/30 04:37:00;;;;;;;14.30;11.43;;;;;;;;;;5056783;28;20299;-75
2023/04/30 04:39:28;;;;;;;15.27;12.10;;;;;;;;;;5053627;28;20255;-74
2023/04/30 04:41:57;;;;;;;14.37;11.70;;;;;;;;;;5034043;28;20653;-74
2023/04/30 04:44:24;;;;;;;13.23;10.97;;;;;;;;;;5032233;28;20256;-75
2023/04/30 04:46:52;;;;;;;16.70;11.70;;;;;;;;;;5047368;28;21502;-74
2023/04/30 04:49:20;;;;;;;15.50;12.40;;;;;;;;;;5052981;28;20198;-74
2023/04/30 04:51:47;;;;;;;14.20;10.93;;;;;;;;;;5047409;28;20213;-75
2023/04/30 04:54:15;;;;;;;14.30;12.03;;;;;;;;;;5046327;28;20236;-75
2023/04/30 04:56:42;;;;;;;14.47;11.60;;;;;;;;;;5049656;28;20699;-75
2023/04/30 04:59:09;;;;;;;14.07;11.57;;;;;;;;;;5044825;28;20930;-75
2023/04/30 05:01:37;;;;;;;16.20;10.93;;;;;;;;;;5040239;28;20229;-75
2023/04/30 05:04:05;;;;;;;14.93;11.50;;;;;;;;;;5040734;28;20206;-75
2023/04/30 05:06:32;;;;;;;15.50;12.13;;;;;;;;;;5046918;28;22381;-75
2023/04/30 05:09:00;;;;;;;14.47;11.43;;;;;;;;;;5040297;28;20201;-75
2023/04/30 05:11:27;;;;;;;14.90;11.73;;;;;;;;;;5040034;28;20221;-75
2023/04/30 05:13:57;;;;;;;14.27;11.03;;;;;;;;;;5055543;28;20221;-75
2023/04/30 05:16:25;;;;;;;13.33;10.90;;;;;;;;;;5056461;28;22469;-75
2023/04/30 05:18:52;;;;;;;14.03;11.70;;;;;;;;;;5050666;28;20705;-73
2023/04/30 05:21:20;;;;;;;15.73;11.87;;;;;;;;;;5045751;28;20291;-75
2023/04/30 05:23:47;;;;;;;16.07;12.03;;;;;;;;;;5041741;28;20212;-72
2023/04/30 05:26:14;;;;;;;14.63;11.90;;;;;;;;;;5049746;28;20206;-74
2023/04/30 05:28:42;;;;;;;14.93;11.67;;;;;;;;;;5044414;28;20197;-75
2023/04/30 05:31:09;;;;;;;14.60;11.43;;;;;;;;;;5047395;28;20750;-74
2023/04/30 05:33:36;;;;;;;15.13;12.00;;;;;;;;;;5048729;28;20259;-75
2023/04/30 05:36:03;;;;;;;14.43;11.27;;;;;;;;;;5041193;28;20232;-72
2023/04/30 05:38:31;;;;;;;14.77;11.30;;;;;;;;;;5043592;28;20556;-74
2023/04/30 05:40:58;;;;;;;15.57;11.77;;;;;;;;;;5044370;28;20239;-74
2023/04/30 05:43:25;;;;;;;13.03;11.03;;;;;;;;;;5045251;28;20213;-74
2023/04/30 05:45:53;;;;;;;13.23;11.27;;;;;;;;;;5049762;28;20205;-75
2023/04/30 05:48:20;;;;;;;14.33;10.87;;;;;;;;;;5050994;28;20236;-74
2023/04/30 05:50:48;;;;;;;13.20;10.80;;;;;;;;;;5057299;28;20306;-75
2023/04/30 05:53:15;;;;;;;12.60;10.80;;;;;;;;;;5057528;28;20621;-75
2023/04/30 05:55:43;;;;;;;13.87;11.07;;;;;;;;;;5040737;28;20193;-75
2023/04/30 05:58:10;;;;;;;13.87;10.70;;;;;;;;;;5052236;28;20209;-75
2023/04/30 06:00:38;;;;;;;12.13;9.93;;;;;;;;;;5048747;28;20282;-75
2023/04/30 06:03:06;;;;;;;12.63;10.37;;;;;;;;;;5059563;28;20224;-75
2023/04/30 06:05:35;;;;;;;11.77;9.90;;;;;;;;;;5057879;28;20201;-75
2023/04/30 06:08:02;;;;;;;12.80;10.47;;;;;;;;;;5040869;28;20628;-75
2023/04/30 06:10:30;;;;;;;13.67;11.00;;;;;;;;;;5048484;28;20225;-75
2023/04/30 06:12:57;;;;;;;11.20;9.97;;;;;;;;;;5051793;28;20638;-75
2023/04/30 06:15:24;;;;;;;11.20;10.00;;;;;;;;;;5043460;28;20289;-75
2023/04/30 06:17:52;;;;;;;12.53;10.63;;;;;;;;;;5049231;28;20803;-73
2023/04/30 06:20:19;;;;;;;12.57;10.93;;;;;;;;;;5047914;28;20305;-75
2023/04/30 06:22:47;;;;;;;12.27;10.50;;;;;;;;;;5043686;28;20209;-75
2023/04/30 06:25:14;;;;;;;12.37;9.70;;;;;;;;;;5048700;28;20201;-75
2023/04/30 06:27:41;;;;;;;11.63;10.43;;;;;;;;;;5047979;28;20225;-74
2023/04/30 06:30:09;;;;;;;11.60;10.40;;;;;;;;;;5052091;28;20217;-72
2023/04/30 06:32:37;;;;;;;11.87;10.23;;;;;;;;;;5045740;28;20198;-73
2023/04/30 06:35:04;;;;;;;12.77;10.73;;;;;;;;;;5041024;28;20197;-73
2023/04/30 06:37:36;;;;;;;11.87;10.33;;;;;;;;;;5039575;28;20210;-75
2023/04/30 06:40:05;;;;;;;10.93;9.83;;;;;;;;;;5030484;28;20307;-75
2023/04/30 06:42:35;;;;;;;11.83;10.23;;;;;;;;;;5051907;28;20209;-74
2023/04/30 06:45:05;;;;;;;14.13;10.90;;;;;;;;;;5053679;28;20222;-75
2023/04/30 06:47:35;;;;;;;19.00;15.07;;;;;;;;;;5054962;28;20213;-75
2023/04/30 06:50:02;;;;;;;13.27;11.63;;;;;;;;;;5053356;28;21095;-74
2023/04/30 06:52:30;;;;;;;12.30;10.73;;;;;;;;;;5033221;28;20236;-75
2023/04/30 06:54:57;;;;;;;12.10;10.90;;;;;;;;;;5044802;28;20210;-75
2023/04/30 06:57:26;;;;;;;11.77;10.03;;;;;;;;;;5021977;28;20210;-74
2023/04/30 06:59:53;;;;;;;11.90;10.33;;;;;;;;;;5043858;28;20295;-75
2023/04/30 07:02:21;;;;;;;11.03;9.33;;;;;;;;;;5053955;28;20645;-75
2023/04/30 07:04:50;;;;;;;10.50;9.27;;;;;;;;;;5050202;28;20206;-75
2023/04/30 07:07:17;;;;;;;10.27;8.87;;;;;;;;;;5036840;28;20232;-74
2023/04/30 07:09:44;;;;;;;10.17;9.17;;;;;;;;;;5050254;28;21404;-74
2023/04/30 07:12:12;;;;;;;10.27;9.23;;;;;;;;;;5053491;28;20212;-74
2023/04/30 07:14:40;;;;;;;9.93;8.93;;;;;;;;;;5039671;28;20209;-74
2023/04/30 07:17:07;;;;;;;9.70;8.70;;;;;;;;;;5034697;28;20222;-74
2023/04/30 07:19:34;;;;;;;9.43;8.53;;;;;;;;;;5045187;28;20226;-75
2023/04/30 07:22:02;;;;;;;10.00;9.00;;;;;;;;;;5035826;28;20225;-75
2023/04/30 07:24:30;;;;;;;9.20;8.30;;;;;;;;;;5029995;28;20229;-75
2023/04/30 07:27:01;;;;;;;12.87;10.87;;;;;;;;;;5023501;28;20357;-75
2023/04/30 07:29:30;;;;;;;13.17;10.60;;;;;;;;;;5021717;28;20298;-73
2023/04/30 07:31:59;;;;;;;11.43;9.13;;;;;;;;;;5023817;28;20957;-75
2023/04/30 07:34:26;;;;;;;9.67;8.67;;;;;;;;;;5005672;28;20215;-74
2023/04/30 07:36:54;;;;;;;10.00;8.80;;;;;;;;;;5016013;28;20201;-75
2023/04/30 07:39:21;;;;;;;11.40;9.27;;;;;;;;;;5019344;28;20264;-75
2023/04/30 07:41:49;;;;;;;10.07;8.53;;;;;;;;;;5019867;28;22703;-74
2023/04/30 07:44:16;;;;;;;15.53;11.33;;;;;;;;;;5028913;28;20209;-72
2023/04/30 07:46:44;;;;;;;9.30;8.40;;;;;;;;;;5050609;28;20284;-73
2023/04/30 07:49:11;;;;;;;7.57;6.80;;;;;;;;;;5043140;28;20300;-75
2023/04/30 07:51:38;;;;;;;8.93;7.20;;;;;;;;;;5024578;28;20225;-75
2023/04/30 07:54:06;;;;;;;7.20;6.50;;;;;;;;;;5014612;28;20206;-72
2023/04/30 07:56:33;;;;;;;9.40;7.23;;;;;;;;;;5047185;28;20777;-73
2023/04/30 07:59:01;;;;;;;8.03;7.23;;;;;;;;;;5005047;28;22201;-73
2023/04/30 08:01:28;;;;;;;8.10;7.30;;;;;;;;;;5009429;28;20328;-73
2023/04/30 08:03:56;;;;;;;7.83;7.13;;;;;;;;;;5010616;28;20221;-74
2023/04/30 08:06:23;;;;;;;8.17;7.37;;;;;;;;;;5027612;28;21352;-75
2023/04/30 08:08:51;;;;;;;8.27;7.47;;;;;;;;;;5031800;28;20236;-75
2023/04/30 08:11:18;;;;;;;9.47;7.93;;;;;;;;;;5003006;28;20284;-75
2023/04/30 08:13:46;;;;;;;8.03;7.23;;;;;;;;;;5008911;28;20672;-75
2023/04/30 08:16:15;;;;;;;9.70;7.78;;;;;;;;;;5011791;28;20202;-75
2023/04/30 08:18:45;;;;;;;7.10;6.40;;;;;;;;;;5004539;28;20206;-75
2023/04/30 08:21:12;;;;;;;7.90;7.20;;;;;;;;;;5026088;28;20246;-75
2023/04/30 08:23:41;;;;;;;7.70;6.90;;;;;;;;;;5042244;28;20633;-73
2023/04/30 08:26:09;;;;;;;6.70;6.10;;;;;;;;;;5024665;28;20216;-74
2023/04/30 08:28:36;;;;;;;6.70;5.97;;;;;;;;;;5026854;28;20262;-75
2023/04/30 08:31:04;;;;;;;6.50;5.90;;;;;;;;;;5013947;28;20611;-74
2023/04/30 08:33:31;;;;;;;6.68;5.97;;;;;;;;;;5031806;28;20202;-75
2023/04/30 08:35:59;;;;;;;5.95;5.45;;;;;;;;;;5029296;28;20757;-75
2023/04/30 08:38:27;;;;;;;6.78;6.05;;;;;;;;;;5018433;28;20224;-75
2023/04/30 08:41:21;;;;;;;6.05;5.55;;;;;;;;;;5031898;28;20710;-73
2023/04/30 08:43:52;;;;;;;6.05;5.55;;;;;;;;;;5036863;28;20259;-75
2023/04/30 08:46:22;;;;;;;6.07;5.57;;;;;;;;;;5033063;28;20237;-72
2023/04/30 08:48:50;;;;;;;6.20;5.63;;;;;;;;;;5043569;28;20221;-73
2023/04/30 08:51:17;;;;;;;5.78;5.28;;;;;;;;;;5005278;28;20245;-72
2023/04/30 08:53:45;;;;;;;5.40;4.90;;;;;;;;;;5020499;28;20325;-75
2023/04/30 08:56:12;;;;;;;5.68;5.13;;;;;;;;;;4999407;28;20320;-75
2023/04/30 08:58:40;;;;;;;5.68;5.18;;;;;;;;;;5011356;28;20209;-74
2023/04/30 09:01:08;;;;;;;6.25;5.55;;;;;;;;;;5019141;28;20347;-75
2023/04/30 09:03:36;;;;;;;6.00;5.50;;;;;;;;;;5057817;28;20210;-75
2023/04/30 09:06:03;;;;;;;5.57;5.07;;;;;;;;;;5048124;28;20214;-75
2023/04/30 09:08:45;;;;;;;5.18;4.68;;;;;;;;;;5052984;28;20302;-75
2023/04/30 09:11:29;;;;;;;5.88;5.38;;;;;;;;;;5057575;28;20227;-75
2023/04/30 09:13:57;;;;;;;5.45;4.90;;;;;;;;;;5053939;28;20202;-75
2023/04/30 09:16:25;;;;;;;5.47;4.95;;;;;;;;;;5058637;28;20295;-75
2023/04/30 09:18:53;;;;;;;5.38;4.88;;;;;;;;;;5051092;28;20581;-75
2023/04/30 09:21:34;;;;;;;6.32;5.80;;;;;;;;;;5059696;28;20230;-75
2023/04/30 09:24:02;;;;;;;5.20;4.70;;;;;;;;;;5055215;28;20241;-75
2023/04/30 09:26:38;;;;;;;7.10;4.80;;;;;;;;;;5051023;28;20690;-75
2023/04/30 09:29:09;;;;;;;6.00;4.50;;;;;;;;;;5037026;28;20691;-75
2023/04/30 09:31:37;;;;;;;5.10;4.60;;;;;;;;;;5052270;28;20352;-75
2023/04/30 09:34:05;;;;;;;4.68;4.28;;;;;;;;;;5031782;28;20714;-75
2023/04/30 09:36:33;;;;;;;5.40;4.90;;;;;;;;;;5059038;28;20241;-75
2023/04/30 09:39:07;;;;;;;5.53;4.93;;;;;;;;;;5040560;28;20205;-75
2023/04/30 09:41:38;;;;;;;5.65;5.15;;;;;;;;;;5060995;28;20229;-75
2023/04/30 09:44:05;;;;;;;6.72;6.05;;;;;;;;;;5046520;28;20209;-75
2023/04/30 09:46:34;;;;;;;6.00;5.50;;;;;;;;;;5048779;28;20655;-75
2023/04/30 09:49:02;;;;;;;5.07;4.68;;;;;;;;;;5060773;28;20284;-76
2023/04/30 09:51:30;;;;;;;5.18;4.57;;;;;;;;;;5051160;28;20225;-74
2023/04/30 09:53:58;;;;;;;6.68;4.63;;;;;;;;;;5040680;28;20217;-75
2023/04/30 09:56:25;;;;;;;5.30;4.72;;;;;;;;;;5049504;28;20241;-75
2023/04/30 09:58:54;;;;;;;6.10;4.25;;;;;;;;;;5048822;28;20228;-74
2023/04/30 10:01:22;;;;;;;4.88;4.38;;;;;;;;;;5053779;28;20221;-74
2023/04/30 10:03:50;;;;;;;6.53;4.50;;;;;;;;;;5053512;28;20248;-75
2023/04/30 10:06:18;;;;;;;6.25;4.88;;;;;;;;;;5048848;28;20259;-76
2023/04/30 10:08:51;;;;;;;5.32;4.82;;;;;;;;;;5047618;28;20229;-75
2023/04/30 10:11:20;;;;;;;5.35;4.85;;;;;;;;;;5046478;28;20604;-75
2023/04/30 10:14:00;;;;;;;4.75;4.35;;;;;;;;;;5064384;28;20201;-75
2023/04/30 10:16:40;;;;;;;5.13;4.60;;;;;;;;;;5051280;28;20259;-75
2023/04/30 10:19:11;;;;;;;4.75;4.30;;;;;;;;;;5048942;28;20300;-75
2023/04/30 10:21:42;;;;;;;4.63;4.22;;;;;;;;;;5057804;28;20251;-75
2023/04/30 10:24:10;;;;;;;5.22;4.32;;;;;;;;;;5053094;28;20328;-75
2023/04/30 10:26:38;;;;;;;4.38;4.00;;;;;;;;;;5051324;28;20206;-75
2023/04/30 10:29:05;;;;;;;4.38;3.90;;;;;;;;;;5040737;28;20372;-74
2023/04/30 10:31:33;;;;;;;3.90;3.60;;;;;;;;;;5058443;28;20249;-75
2023/04/30 10:34:09;;;;;;;3.42;3.22;;;;;;;;;;5044875;28;20209;-75
2023/04/30 10:36:40;;;;;;;4.13;3.72;;;;;;;;;;5052092;28;20201;-75
2023/04/30 10:39:07;;;;;;;3.80;3.50;;;;;;;;;;5053817;28;20227;-75
2023/04/30 10:41:35;;;;;;;3.70;3.40;;;;;;;;;;5025371;28;20691;-75
2023/04/30 10:44:04;;;;;;;3.72;3.38;;;;;;;;;;5010912;28;21510;-75
2023/04/30 10:46:34;;;;;;;3.88;3.58;;;;;;;;;;5015921;28;20232;-75
2023/04/30 10:49:02;;;;;;;3.60;3.30;;;;;;;;;;5023782;28;22113;-74
2023/04/30 10:51:50;;;;;;;4.32;4.03;;;;;;;;;;5024647;28;20634;-75
2023/04/30 10:54:26;;;;;;;4.15;3.63;;;;;;;;;;5014687;28;22743;-75
2023/04/30 10:56:58;;;;;;;4.07;3.67;;;;;;;;;;5032662;28;20220;-74
2023/04/30 10:59:28;;;;;;;3.65;3.35;;;;;;;;;;5033089;28;20206;-75
2023/04/30 11:02:00;;;;;;;4.28;3.80;;;;;;;;;;5027649;28;20401;-74
2023/04/30 11:04:28;;;;;;;3.88;3.58;;;;;;;;;;5041370;28;20205;-74
2023/04/30 11:07:06;;;;;;;4.00;3.70;;;;;;;;;;5045404;28;20217;-74
2023/04/30 11:09:39;;;;;;;4.15;3.75;;;;;;;;;;5044867;28;21114;-73
2023/04/30 11:12:29;;;;;;;4.88;4.07;;;;;;;;;;5026630;28;20217;-74
2023/04/30 11:15:06;;;;;;;4.25;3.95;;;;;;;;;;5023187;28;20391;-76
2023/04/30 11:17:34;;;;;;;4.50;4.10;;;;;;;;;;5026861;28;20213;-75
2023/04/30 11:20:01;;;;;;;4.20;3.83;;;;;;;;;;5032472;28;20235;-75
2023/04/30 11:22:34;;;;;;;4.53;3.85;;;;;;;;;;5033414;28;20640;-75
2023/04/30 11:25:06;;;;;;;4.05;3.60;;;;;;;;;;5044586;28;20617;-74
2023/04/30 11:27:34;;;;;;;4.80;4.32;;;;;;;;;;5028454;28;20229;-74
2023/04/30 11:30:02;;;;;;;5.82;4.90;;;;;;;;;;5022563;28;20233;-74
2023/04/30 11:32:33;;;;;;;5.68;3.75;;;;;;;;;;5026806;28;20989;-75
2023/04/30 11:35:05;;;;;;;4.20;3.50;;;;;;;;;;5005512;28;20248;-74
2023/04/30 11:37:37;;;;;;;4.28;3.33;;;;;;;;;;4991159;28;20205;-74
2023/04/30 11:40:07;;;;;;;4.25;3.50;;;;;;;;;;5023241;28;20715;-74
2023/04/30 11:42:35;;;;;;;4.28;3.97;;;;;;;;;;5027565;28;20696;-74
2023/04/30 11:45:07;;;;;;;3.88;3.58;;;;;;;;;;5015515;28;20285;-75
2023/04/30 11:47:44;;;;;;;4.65;3.50;;;;;;;;;;5050865;28;20205;-75
2023/04/30 11:50:13;;;;;;;3.85;3.55;;;;;;;;;;5035905;28;20229;-75
2023/04/30 11:52:41;;;;;;;3.38;3.17;;;;;;;;;;5035601;28;21159;-74
2023/04/30 11:55:16;;;;;;;3.40;3.20;;;;;;;;;;5009072;28;20341;-75
2023/04/30 11:57:45;;;;;;;3.83;2.90;;;;;;;;;;5009161;28;20197;-74
2023/04/30 12:00:16;;;;;;;3.58;2.97;;;;;;;;;;5013025;28;20220;-74
2023/04/30 12:02:44;;;;;;;3.60;2.90;;;;;;;;;;5032195;28;20289;-75
2023/04/30 12:05:14;;;;;;;3.17;2.63;;;;;;;;;;5036417;28;20221;-74
2023/04/30 12:07:46;;;;;;;3.00;2.70;;;;;;;;;;5033815;28;21790;-75
2023/04/30 12:10:13;;;;;;;3.88;3.58;;;;;;;;;;5042750;28;20245;-74
2023/04/30 12:12:42;;;;;;;3.80;3.03;;;;;;;;;;5029539;28;20210;-73
2023/04/30 12:15:11;;;;;;;3.20;3.00;;;;;;;;;;5051309;28;20225;-73
2023/04/30 12:17:38;;;;;;;3.17;2.83;;;;;;;;;;5036948;28;20232;-75
2023/04/30 12:20:06;;;;;;;3.25;2.92;;;;;;;;;;5030165;28;20225;-74
2023/04/30 12:22:34;;;;;;;3.50;3.20;;;;;;;;;;5036591;28;20234;-75
2023/04/30 12:25:05;;;;;;;5.38;4.18;;;;;;;;;;5028336;28;20316;-75
2023/04/30 12:27:34;;;;;;;10.20;5.15;;;;;;;;;;5030691;28;20225;-74
2023/04/30 12:30:12;;;;;;;8.57;4.15;;;;;;;;;;5031118;28;20363;-75
2023/04/30 12:32:43;;;;;;;3.70;3.13;;;;;;;;;;5020883;28;20208;-75
2023/04/30 12:35:14;;;;;;;3.00;2.80;;;;;;;;;;5023739;28;20296;-75
2023/04/30 12:37:43;;;;;;;3.08;2.88;;;;;;;;;;5021665;28;20267;-75
2023/04/30 12:40:11;;;;;;;3.30;3.10;;;;;;;;;;5026195;28;20342;-74
2023/04/30 12:42:44;;;;;;;3.45;3.03;;;;;;;;;;5020072;28;20209;-75
2023/04/30 12:45:11;;;;;;;3.88;2.97;;;;;;;;;;5034217;28;20332;-75
2023/04/30 12:47:39;;;;;;;4.00;3.67;;;;;;;;;;5039077;28;20416;-74
2023/04/30 12:50:09;;;;;;;3.38;3.17;;;;;;;;;;5036855;28;23767;-75
2023/04/30 12:52:37;;;;;;;3.28;2.97;;;;;;;;;;5030984;28;20199;-76
2023/04/30 12:55:14;;;;;;;3.40;3.20;;;;;;;;;;5026588;28;20690;-75
2023/04/30 12:58:03;;;;;;;3.30;3.00;;;;;;;;;;5045451;28;20205;-75
2023/04/30 13:00:42;;;;;;;3.05;2.85;;;;;;;;;;5038494;28;20248;-72
2023/04/30 13:03:11;;;;;;;2.80;2.60;;;;;;;;;;5050109;28;20248;-73
2023/04/30 13:05:40;;;;;;;2.60;2.50;;;;;;;;;;5032453;28;20644;-74
2023/04/30 13:08:08;;;;;;;3.67;3.38;;;;;;;;;;5041385;28;20284;-74
2023/04/30 13:10:35;;;;;;;3.47;3.17;;;;;;;;;;5045069;28;20660;-74
2023/04/30 13:13:02;;;;;;;3.25;3.05;;;;;;;;;;5039052;28;20293;-74
2023/04/30 13:15:30;;;;;;;3.00;2.67;;;;;;;;;;5030966;28;20305;-74
2023/04/30 13:17:57;;;;;;;3.10;2.90;;;;;;;;;;5039461;28;20800;-73
2023/04/30 13:20:25;;;;;;;3.00;2.80;;;;;;;;;;5046030;28;20744;-75
2023/04/30 13:22:52;;;;;;;3.63;2.90;;;;;;;;;;5023638;28;20283;-75
2023/04/30 13:25:20;;;;;;;3.00;2.80;;;;;;;;;;5037191;28;20900;-74
2023/04/30 13:27:48;;;;;;;3.20;3.00;;;;;;;;;;5045096;28;20566;-75
2023/04/30 13:30:15;;;;;;;3.10;2.90;;;;;;;;;;5021125;28;20230;-75
2023/04/30 13:32:44;;;;;;;3.20;2.95;;;;;;;;;;5036982;28;20402;-75
2023/04/30 13:35:12;;;;;;;3.35;3.03;;;;;;;;;;5043292;28;20214;-74
2023/04/30 13:37:40;;;;;;;3.17;2.97;;;;;;;;;;5038322;28;20687;-75
2023/04/30 13:40:08;;;;;;;4.47;2.90;;;;;;;;;;5041041;28;20726;-74
2023/04/30 13:42:38;;;;;;;2.80;2.60;;;;;;;;;;5037432;28;20310;-75
2023/04/30 13:45:07;;;;;;;2.80;2.60;;;;;;;;;;5025401;28;21501;-75
2023/04/30 13:47:34;;;;;;;3.42;2.75;;;;;;;;;;5042034;28;20206;-75
2023/04/30 13:50:02;;;;;;;3.63;2.85;;;;;;;;;;5026836;28;20405;-75
2023/04/30 13:52:29;;;;;;;3.30;3.00;;;;;;;;;;5034426;28;20255;-74
2023/04/30 13:54:56;;;;;;;3.25;3.00;;;;;;;;;;5045882;28;20221;-74
2023/04/30 13:57:24;;;;;;;2.90;2.70;;;;;;;;;;5042042;28;20221;-75
2023/04/30 13:59:53;;;;;;;3.25;2.90;;;;;;;;;;5019275;28;20233;-74
2023/04/30 14:02:21;;;;;;;3.15;2.95;;;;;;;;;;5031689;28;20648;-74
2023/04/30 14:04:48;;;;;;;2.88;2.67;;;;;;;;;;5047786;28;20205;-74
2023/04/30 14:07:31;;;;;;;3.05;2.72;;;;;;;;;;5040483;28;20240;-74
2023/04/30 14:09:59;;;;;;;2.90;2.75;;;;;;;;;;5029001;28;20644;-75
2023/04/30 14:12:26;;;;;;;2.55;2.45;;;;;;;;;;5041690;28;20233;-75
2023/04/30 14:14:54;;;;;;;3.50;3.20;;;;;;;;;;5052771;28;20197;-75
2023/04/30 14:17:21;;;;;;;3.35;3.05;;;;;;;;;;5024603;28;20298;-75
2023/04/30 14:19:49;;;;;;;3.10;2.75;;;;;;;;;;5031074;28;20275;-75
2023/04/30 14:22:16;;;;;;;3.05;2.75;;;;;;;;;;5041444;28;20213;-75
2023/04/30 14:24:44;;;;;;;3.00;2.80;;;;;;;;;;5035287;28;23264;-75
2023/04/30 14:27:11;;;;;;;3.13;2.92;;;;;;;;;;5032464;28;20654;-75
2023/04/30 14:29:38;;;;;;;3.00;2.80;;;;;;;;;;5034020;28;20830;-74
2023/04/30 14:32:06;;;;;;;3.15;2.95;;;;;;;;;;5023490;28;20194;-75
2023/04/30 14:34:34;;;;;;;3.60;3.28;;;;;;;;;;5002231;28;20210;-73
2023/04/30 14:37:02;;;;;;;2.83;2.63;;;;;;;;;;5030825;28;20228;-74
2023/04/30 14:39:29;;;;;;;3.10;2.90;;;;;;;;;;5009058;28;20221;-74
2023/04/30 14:41:57;;;;;;;3.17;2.97;;;;;;;;;;5029596;28;20217;-74
2023/04/30 14:44:25;;;;;;;3.78;3.00;;;;;;;;;;5033678;28;20251;-75
2023/04/30 14:46:53;;;;;;;4.55;3.20;;;;;;;;;;5044749;28;20210;-75